Time;durP1;ratioP1;P1;durP2;ratioP2;P2;SDS_P1;SDS_P2;PMS_P1;PMS_P2;Temp;Humidity;BMP_temperature;BMP_pressure;BME280_temperature;BME280_humidity;BME280_pressure;Samples;Min_cycle;Max_cycle;Signal;HPM_P1;HPM_P2
2023/03/23 00:00:54;;;;;;;10.02;6.30;;;11.60;99.90;;;;;;5091989;28;20049;-66
2023/03/23 00:03:21;;;;;;;9.77;6.22;;;11.50;99.90;;;;;;5063032;28;20039;-66
2023/03/23 00:05:51;;;;;;;9.68;6.35;;;11.50;99.90;;;;;;5096591;28;20465;-67
2023/03/23 00:08:20;;;;;;;9.75;6.25;;;11.50;99.90;;;;;;5094472;28;20023;-66
2023/03/23 00:10:56;;;;;;;8.68;6.38;;;11.50;99.90;;;;;;5091000;28;20032;-66
2023/03/23 00:13:24;;;;;;;10.07;6.72;;;11.50;99.90;;;;;;5085489;28;20101;-66
2023/03/23 00:15:51;;;;;;;10.10;6.35;;;11.50;99.90;;;;;;5077310;28;20134;-66
2023/03/23 00:18:21;;;;;;;8.88;6.57;;;11.50;99.90;;;;;;5069854;28;20143;-66
2023/03/23 00:20:48;;;;;;;8.50;6.32;;;11.60;99.90;;;;;;5078166;28;20566;-66
2023/03/23 00:23:19;;;;;;;10.77;7.43;;;11.60;99.90;;;;;;5114175;28;20378;-66
2023/03/23 00:25:56;;;;;;;10.85;7.35;;;11.60;99.90;;;;;;5079324;28;20403;-67
2023/03/23 00:28:24;;;;;;;13.35;6.70;;;11.60;99.90;;;;;;5083861;28;20036;-66
2023/03/23 00:31:01;;;;;;;8.63;7.00;;;11.70;99.90;;;;;;5087178;28;20549;-67
2023/03/23 00:33:29;;;;;;;8.52;6.72;;;11.70;99.90;;;;;;5094185;28;20031;-66
2023/03/23 00:35:56;;;;;;;10.60;6.75;;;11.70;99.90;;;;;;5081744;28;20036;-66
2023/03/23 00:38:23;;;;;;;8.50;6.25;;;11.60;99.90;;;;;;5092541;28;20031;-67
2023/03/23 00:40:50;;;;;;;8.68;6.00;;;11.70;99.90;;;;;;5079013;28;20039;-66
2023/03/23 00:43:18;;;;;;;9.35;5.68;;;11.70;99.90;;;;;;5082458;28;20036;-67
2023/03/23 00:45:52;;;;;;;9.13;6.13;;;11.70;99.90;;;;;;5085539;28;20043;-65
2023/03/23 00:48:23;;;;;;;8.25;5.88;;;11.70;99.90;;;;;;5092754;28;20046;-66
2023/03/23 00:50:50;;;;;;;7.00;5.45;;;11.80;99.90;;;;;;5082860;28;20079;-67
2023/03/23 00:53:18;;;;;;;7.78;5.80;;;11.90;99.90;;;;;;5061391;28;20042;-67
2023/03/23 00:55:46;;;;;;;7.82;5.38;;;11.90;99.90;;;;;;5062505;28;20176;-67
2023/03/23 00:58:13;;;;;;;11.45;6.15;;;11.90;99.90;;;;;;5095572;28;20039;-68
2023/03/23 01:00:40;;;;;;;8.52;5.60;;;11.80;99.90;;;;;;5095217;28;20040;-68
2023/03/23 01:03:07;;;;;;;8.65;5.82;;;11.80;99.90;;;;;;5079143;28;20056;-69
2023/03/23 01:05:37;;;;;;;7.88;6.07;;;11.90;99.90;;;;;;5066384;28;20032;-67
2023/03/23 01:08:04;;;;;;;7.32;5.85;;;11.80;99.90;;;;;;5089079;28;20494;-67
2023/03/23 01:10:32;;;;;;;7.45;5.95;;;11.80;99.90;;;;;;5065373;28;20040;-66
2023/03/23 01:13:00;;;;;;;7.22;5.97;;;11.80;99.90;;;;;;5074683;28;20469;-66
2023/03/23 01:15:28;;;;;;;7.70;5.70;;;11.80;99.90;;;;;;5094715;28;20590;-65
2023/03/23 01:17:55;;;;;;;9.63;5.93;;;11.80;99.90;;;;;;5095557;28;20031;-66
2023/03/23 01:20:21;;;;;;;9.63;6.00;;;11.80;99.90;;;;;;5087485;28;20074;-67
2023/03/23 01:22:47;;;;;;;7.35;5.53;;;11.80;99.90;;;;;;5087710;28;20040;-66
2023/03/23 01:25:14;;;;;;;8.23;5.50;;;11.80;99.90;;;;;;5089756;28;20043;-68
2023/03/23 01:27:41;;;;;;;9.55;5.60;;;11.80;99.90;;;;;;5094667;28;20028;-67
2023/03/23 01:30:10;;;;;;;9.52;5.63;;;11.80;99.90;;;;;;5094994;28;20035;-67
2023/03/23 01:32:36;;;;;;;9.68;5.63;;;11.80;99.90;;;;;;5050691;28;20036;-67
2023/03/23 01:35:02;;;;;;;6.95;5.40;;;11.80;99.90;;;;;;5047058;28;20494;-66
2023/03/23 01:37:30;;;;;;;7.40;5.53;;;11.80;99.90;;;;;;5091108;28;20031;-66
2023/03/23 01:39:57;;;;;;;8.15;5.22;;;11.80;99.90;;;;;;5078234;28;20505;-66
2023/03/23 01:42:25;;;;;;;7.25;5.40;;;11.80;99.90;;;;;;5050788;28;20086;-67
2023/03/23 01:44:51;;;;;;;9.15;5.68;;;11.80;99.90;;;;;;5074899;28;20032;-65
2023/03/23 01:47:23;;;;;;;5.85;5.00;;;11.80;99.90;;;;;;5077309;28;20458;-68
2023/03/23 01:49:51;;;;;;;6.38;5.35;;;11.90;99.90;;;;;;5075536;28;20108;-65
2023/03/23 01:52:25;;;;;;;7.28;5.38;;;12.00;99.90;;;;;;5094261;28;20039;-66
2023/03/23 01:54:56;;;;;;;9.52;5.07;;;12.00;99.90;;;;;;5058533;28;20332;-66
2023/03/23 01:57:29;;;;;;;7.22;5.00;;;12.10;99.90;;;;;;5071072;28;20134;-66
2023/03/23 02:00:08;;;;;;;8.35;4.78;;;12.10;99.90;;;;;;5078188;28;20035;-66
2023/03/23 02:02:53;;;;;;;7.82;4.60;;;12.10;99.90;;;;;;5069158;28;20347;-66
2023/03/23 02:05:36;;;;;;;7.45;4.47;;;12.20;99.90;;;;;;5057332;28;20414;-66
2023/03/23 02:08:10;;;;;;;7.07;4.80;;;12.30;99.90;;;;;;5093276;28;20024;-66
2023/03/23 02:10:37;;;;;;;5.75;4.47;;;12.30;99.90;;;;;;5057673;28;20035;-68
2023/03/23 02:13:06;;;;;;;6.32;4.47;;;12.40;99.90;;;;;;5055626;28;20105;-67
2023/03/23 02:15:58;;;;;;;7.45;4.63;;;12.40;99.90;;;;;;5058035;28;20039;-68
2023/03/23 02:19:23;;;;;;;8.93;4.97;;;12.40;99.90;;;;;;5042180;28;20051;-67
2023/03/23 02:22:25;;;;;;;8.43;4.43;;;12.50;99.90;;;;;;4974796;28;20046;-68
2023/03/23 02:25:18;;;;;;;9.15;5.40;;;12.50;99.90;;;;;;4947343;28;20051;-67
2023/03/23 02:27:57;;;;;;;8.38;5.40;;;12.50;99.90;;;;;;4933673;29;20043;-66
2023/03/23 02:31:04;;;;;;;7.00;5.47;;;12.50;99.90;;;;;;4949456;28;20437;-65
2023/03/23 02:34:20;;;;;;;7.70;4.90;;;12.50;99.90;;;;;;4986305;28;20620;-67
2023/03/23 02:37:00;;;;;;;7.38;5.13;;;12.60;99.90;;;;;;4927328;28;20054;-67
2023/03/23 02:39:50;;;;;;;6.93;4.90;;;12.50;99.90;;;;;;4969873;28;20195;-66
2023/03/23 02:42:22;;;;;;;8.00;4.90;;;12.50;99.90;;;;;;4948362;29;20074;-66
2023/03/23 02:44:50;;;;;;;6.20;4.55;;;12.50;99.90;;;;;;4951240;28;20252;-68
2023/03/23 02:47:37;;;;;;;6.07;4.65;;;12.50;99.90;;;;;;4942960;28;20097;-67
2023/03/23 02:50:07;;;;;;;5.47;4.70;;;12.60;99.90;;;;;;4968883;28;20102;-68
2023/03/23 02:52:39;;;;;;;4.88;4.22;;;12.60;99.90;;;;;;5000873;28;20355;-66
2023/03/23 02:55:07;;;;;;;6.35;4.63;;;12.70;99.90;;;;;;5012579;28;20049;-68
2023/03/23 02:57:37;;;;;;;8.13;4.80;;;12.70;99.90;;;;;;5030178;28;20095;-67
2023/03/23 03:00:10;;;;;;;5.40;4.60;;;12.70;99.90;;;;;;5029697;28;20044;-67
2023/03/23 03:03:02;;;;;;;;;;;12.60;99.90;;;;;;5031884;28;20659;-67
2023/03/23 03:05:49;;;;;;;5.78;4.68;;;12.60;99.90;;;;;;5056724;28;20020;-68
2023/03/23 03:08:34;;;;;;;6.03;4.32;;;12.70;99.90;;;;;;5055965;28;20141;-67
2023/03/23 03:11:11;;;;;;;6.35;4.85;;;12.70;99.90;;;;;;5054628;28;20044;-68
2023/03/23 03:13:52;;;;;;;7.18;4.70;;;12.70;99.90;;;;;;5038974;28;20048;-66
2023/03/23 03:16:38;;;;;;;5.40;4.35;;;12.60;99.90;;;;;;5055517;28;20115;-67
2023/03/23 03:19:22;;;;;;;5.25;4.45;;;12.70;99.90;;;;;;5070322;28;20599;-67
2023/03/23 03:21:50;;;;;;;5.72;4.22;;;12.70;99.90;;;;;;5061587;28;20392;-68
2023/03/23 03:24:27;;;;;;;8.73;4.68;;;12.70;99.90;;;;;;5059557;28;20028;-67
2023/03/23 03:26:57;;;;;;;6.47;4.53;;;12.60;99.90;;;;;;5061620;28;20479;-68
2023/03/23 03:29:41;;;;;;;6.68;4.28;;;12.60;99.90;;;;;;5061198;28;20505;-67
2023/03/23 03:32:13;;;;;;;6.00;4.30;;;12.60;99.90;;;;;;5067279;28;20465;-69
2023/03/23 03:34:41;;;;;;;6.05;4.40;;;12.50;99.90;;;;;;5080824;28;20397;-65
2023/03/23 03:37:08;;;;;;;6.43;4.43;;;12.50;99.90;;;;;;5080743;28;20111;-67
2023/03/23 03:39:36;;;;;;;6.20;4.38;;;12.50;99.90;;;;;;5075812;28;20028;-68
2023/03/23 03:42:04;;;;;;;6.75;4.60;;;12.40;99.90;;;;;;5026912;28;20155;-68
2023/03/23 03:44:32;;;;;;;6.63;4.60;;;12.40;99.90;;;;;;5058474;28;20440;-68
2023/03/23 03:46:58;;;;;;;7.85;4.57;;;12.30;99.90;;;;;;5067856;28;20557;-68
2023/03/23 03:49:25;;;;;;;9.00;5.13;;;12.30;99.90;;;;;;5079184;28;20381;-68
2023/03/23 03:51:53;;;;;;;5.47;4.55;;;12.30;99.90;;;;;;5063719;28;20509;-69
2023/03/23 03:54:24;;;;;;;4.90;4.40;;;12.30;99.90;;;;;;5070319;28;20119;-67
2023/03/23 03:56:51;;;;;;;5.00;4.50;;;12.20;99.90;;;;;;5058328;28;20097;-67
2023/03/23 03:59:38;;;;;;;5.03;4.40;;;12.20;99.90;;;;;;5047006;28;20046;-68
2023/03/23 04:02:22;;;;;;;6.72;4.85;;;12.20;99.90;;;;;;5062337;28;20032;-67
2023/03/23 04:04:53;;;;;;;5.22;4.70;;;12.10;99.90;;;;;;5042910;28;20115;-67
2023/03/23 04:07:21;;;;;;;4.72;4.22;;;12.10;99.90;;;;;;5058545;28;20111;-65
2023/03/23 04:09:49;;;;;;;7.57;5.07;;;12.10;99.90;;;;;;5065480;28;20036;-67
2023/03/23 04:12:18;;;;;;;7.65;4.78;;;12.10;99.90;;;;;;5075117;28;20055;-66
2023/03/23 04:15:10;;;;;;;7.35;4.40;;;12.10;99.90;;;;;;4965416;28;20051;-68
2023/03/23 04:17:37;;;;;;;6.05;4.10;;;12.20;99.90;;;;;;4991252;28;20501;-66
2023/03/23 04:23:01;;;;;;;8.85;4.57;;;12.30;99.90;;;;;;4985813;28;20591;-66
2023/03/23 04:25:32;;;;;;;5.78;4.85;;;12.30;99.90;;;;;;4995114;28;20057;-66
2023/03/23 04:28:00;;;;;;;6.43;4.53;;;12.30;99.90;;;;;;4977619;28;20041;-67
2023/03/23 04:30:32;;;;;;;4.93;4.20;;;12.40;99.90;;;;;;4962569;28;20614;-66
2023/03/23 04:33:05;;;;;;;6.63;4.05;;;12.40;99.90;;;;;;4994204;28;20061;-65
2023/03/23 04:35:32;;;;;;;5.72;4.25;;;12.40;99.90;;;;;;5008553;28;20637;-66
2023/03/23 04:38:20;;;;;;;8.27;4.32;;;12.30;99.90;;;;;;4997275;28;20586;-66
2023/03/23 04:40:53;;;;;;;7.72;4.45;;;12.30;99.90;;;;;;4976270;28;20041;-66
2023/03/23 04:43:56;;;;;;;5.70;4.20;;;12.30;99.90;;;;;;4904418;29;20047;-66
2023/03/23 04:46:28;;;;;;;;;;;12.30;99.90;;;;;;4887420;29;20058;-66
2023/03/23 04:48:58;;;;;;;5.15;4.28;;;12.40;99.90;;;;;;4918341;29;20533;-68
2023/03/23 04:51:31;;;;;;;5.97;3.97;;;12.40;99.90;;;;;;4928101;28;20518;-67
2023/03/23 04:54:04;;;;;;;7.05;4.40;;;12.40;99.90;;;;;;5016504;28;20621;-67
2023/03/23 04:56:32;;;;;;;5.22;4.00;;;12.40;99.90;;;;;;5015766;28;20045;-67
2023/03/23 04:59:06;;;;;;;6.25;4.00;;;12.40;99.90;;;;;;5016182;28;20067;-67
2023/03/23 05:01:45;;;;;;;5.43;4.32;;;12.40;99.90;;;;;;5017485;28;20045;-67
2023/03/23 05:04:18;;;;;;;6.82;4.10;;;12.40;99.90;;;;;;5018121;28;20059;-66
2023/03/23 05:06:56;;;;;;;6.00;4.30;;;12.30;99.90;;;;;;5018084;28;20562;-67
2023/03/23 05:09:26;;;;;;;9.02;4.40;;;12.30;99.90;;;;;;5016887;28;20049;-67
2023/03/23 05:11:52;;;;;;;7.10;4.38;;;12.30;99.90;;;;;;5016874;28;20068;-67
2023/03/23 05:14:19;;;;;;;6.93;4.63;;;12.30;99.90;;;;;;5032418;28;20070;-68
2023/03/23 05:16:54;;;;;;;5.75;4.38;;;12.40;99.90;;;;;;5003238;28;20057;-68
2023/03/23 05:19:21;;;;;;;5.95;4.40;;;12.40;99.90;;;;;;5074685;28;20032;-68
2023/03/23 05:21:48;;;;;;;7.25;4.80;;;12.40;99.90;;;;;;5063496;28;20074;-70
2023/03/23 05:24:14;;;;;;;6.63;4.60;;;12.50;99.90;;;;;;5087124;28;20035;-68
2023/03/23 05:26:41;;;;;;;8.15;4.60;;;12.50;99.90;;;;;;5056789;28;20486;-68
2023/03/23 05:29:15;;;;;;;6.57;4.72;;;12.50;99.90;;;;;;5042630;28;20032;-67
2023/03/23 05:31:52;;;;;;;7.32;4.30;;;12.50;99.90;;;;;;5047035;28;20035;-67
2023/03/23 05:34:19;;;;;;;7.88;4.85;;;12.50;99.90;;;;;;5061652;28;20063;-68
2023/03/23 05:36:55;;;;;;;6.75;4.40;;;12.50;99.90;;;;;;5076297;28;20028;-67
2023/03/23 05:39:55;;;;;;;6.90;4.40;;;12.60;99.90;;;;;;5062967;28;20051;-67
2023/03/23 05:42:25;;;;;;;7.82;4.00;;;12.60;99.90;;;;;;5072892;28;20093;-68
2023/03/23 05:45:16;;;;;;;7.28;4.53;;;12.60;99.90;;;;;;5052008;28;20040;-67
2023/03/23 05:47:43;;;;;;;8.52;4.25;;;12.60;99.90;;;;;;5040126;28;20032;-67
2023/03/23 05:50:14;;;;;;;5.85;4.10;;;12.70;99.90;;;;;;5062755;28;20058;-68
2023/03/23 05:52:40;;;;;;;4.88;3.90;;;12.80;99.90;;;;;;5056062;28;20500;-67
2023/03/23 05:55:11;;;;;;;5.07;3.85;;;12.80;99.90;;;;;;5054737;28;20115;-68
2023/03/23 05:57:41;;;;;;;6.05;4.10;;;12.90;99.90;;;;;;5023974;28;20063;-68
2023/03/23 06:00:29;;;;;;;5.22;4.22;;;12.90;99.90;;;;;;5061278;28;20174;-66
2023/03/23 06:03:08;;;;;;;9.80;4.10;;;12.90;99.90;;;;;;5046187;28;20028;-67
2023/03/23 06:05:46;;;;;;;7.28;4.45;;;12.90;99.90;;;;;;5060725;28;20058;-68
2023/03/23 06:08:16;;;;;;;7.18;4.22;;;13.00;99.90;;;;;;5076541;28;20047;-66
2023/03/23 06:10:43;;;;;;;7.65;4.55;;;13.10;99.90;;;;;;5076553;28;20036;-69
2023/03/23 06:13:12;;;;;;;8.27;4.45;;;13.20;99.90;;;;;;5077516;28;20038;-66
2023/03/23 06:15:43;;;;;;;7.03;4.20;;;13.20;99.90;;;;;;5093862;28;20118;-67
2023/03/23 06:18:17;;;;;;;7.03;4.10;;;13.30;99.90;;;;;;5062361;28;20145;-66
2023/03/23 06:21:01;;;;;;;6.53;4.65;;;13.30;99.90;;;;;;5079232;28;20559;-68
2023/03/23 06:23:47;;;;;;;6.97;4.53;;;13.30;99.90;;;;;;5059511;28;20568;-65
2023/03/23 06:26:18;;;;;;;6.45;4.57;;;13.30;99.90;;;;;;5074256;28;20103;-67
2023/03/23 06:28:47;;;;;;;7.88;4.68;;;13.40;99.90;;;;;;5076993;28;20501;-66
2023/03/23 06:31:14;;;;;;;7.50;4.78;;;13.40;99.90;;;;;;5040293;28;20489;-68
2023/03/23 06:33:41;;;;;;;8.38;4.97;;;13.40;99.90;;;;;;5090755;28;20039;-67
2023/03/23 06:36:26;;;;;;;5.45;4.43;;;13.40;99.90;;;;;;5083388;28;20028;-67
2023/03/23 06:39:04;;;;;;;7.72;4.72;;;13.30;99.90;;;;;;5058683;28;20043;-66
2023/03/23 06:41:51;;;;;;;6.68;4.70;;;13.30;99.90;;;;;;5063557;28;20478;-67
2023/03/23 06:44:18;;;;;;;7.25;4.43;;;13.40;99.90;;;;;;5069353;28;20078;-66
2023/03/23 06:46:44;;;;;;;6.57;4.88;;;13.40;99.90;;;;;;5083089;28;20039;-66
2023/03/23 06:49:25;;;;;;;6.65;4.70;;;13.40;99.90;;;;;;5064899;28;20490;-66
2023/03/23 06:52:10;;;;;;;12.18;5.40;;;13.50;99.90;;;;;;5057561;28;20582;-67
2023/03/23 06:54:36;;;;;;;7.97;5.30;;;13.50;99.90;;;;;;5077208;28;20039;-66
2023/03/23 06:57:04;;;;;;;8.02;5.50;;;13.60;99.90;;;;;;5068410;28;20043;-66
2023/03/23 06:59:31;;;;;;;8.55;5.10;;;13.80;99.90;;;;;;5051789;28;20044;-69
2023/03/23 07:01:57;;;;;;;8.35;5.32;;;13.90;99.90;;;;;;5051164;28;20040;-68
2023/03/23 07:04:24;;;;;;;11.82;5.60;;;14.10;99.90;;;;;;5070266;28;20116;-67
2023/03/23 07:07:00;;;;;;;7.68;5.20;;;14.20;99.90;;;;;;5072578;28;20072;-68
2023/03/23 07:09:27;;;;;;;9.20;5.63;;;14.30;99.90;;;;;;5056361;28;20100;-70
2023/03/23 07:11:53;;;;;;;11.13;5.70;;;14.40;99.90;;;;;;5091641;28;20609;-68
2023/03/23 07:14:29;;;;;;;12.02;5.70;;;14.50;99.90;;;;;;5075264;28;20036;-69
2023/03/23 07:16:55;;;;;;;9.50;5.63;;;14.60;99.90;;;;;;5089858;28;20435;-68
2023/03/23 07:19:22;;;;;;;10.82;5.85;;;14.70;99.90;;;;;;5071061;28;20028;-67
2023/03/23 07:21:48;;;;;;;8.25;5.15;;;14.80;99.90;;;;;;5091796;28;20032;-68
2023/03/23 07:24:16;;;;;;;7.57;5.10;;;14.90;99.90;;;;;;5075782;28;20074;-68
2023/03/23 07:27:21;;;;;;;9.60;6.22;;;14.90;99.90;;;;;;5056219;28;20052;-68
2023/03/23 07:29:48;;;;;;;9.27;5.47;;;14.80;99.90;;;;;;5060292;28;20559;-68
2023/03/23 07:32:22;;;;;;;9.05;5.13;;;14.90;99.90;;;;;;5092530;28;20035;-68
2023/03/23 07:34:48;;;;;;;7.72;5.35;;;14.70;99.90;;;;;;5056363;28;20525;-68
2023/03/23 07:37:25;;;;;;;8.95;5.47;;;14.60;99.90;;;;;;5060048;28;20521;-68
2023/03/23 07:39:51;;;;;;;7.25;5.75;;;14.70;99.90;;;;;;5076030;28;20413;-68
2023/03/23 07:42:18;;;;;;;7.63;5.35;;;14.70;99.90;;;;;;5091481;28;20043;-67
2023/03/23 07:44:51;;;;;;;7.82;5.13;;;14.70;99.90;;;;;;5075487;28;20122;-67
2023/03/23 07:47:17;;;;;;;15.13;5.13;;;14.60;99.90;;;;;;5087908;28;20047;-67
2023/03/23 07:49:46;;;;;;;7.40;5.25;;;14.70;99.90;;;;;;5066955;28;20510;-68
2023/03/23 07:52:20;;;;;;;9.63;5.57;;;14.70;99.90;;;;;;5070752;28;20127;-68
2023/03/23 07:54:46;;;;;;;12.23;5.68;;;14.70;99.90;;;;;;5070587;28;20048;-68
2023/03/23 07:57:22;;;;;;;7.65;5.85;;;14.90;99.90;;;;;;5038062;28;20393;-69
2023/03/23 07:59:52;;;;;;;7.75;5.00;;;14.90;99.90;;;;;;5071914;28;20047;-68
2023/03/23 08:02:18;;;;;;;6.97;5.32;;;15.00;99.90;;;;;;5037582;28;20090;-68
2023/03/23 08:04:56;;;;;;;6.97;4.88;;;15.00;99.90;;;;;;5055925;28;20441;-68
2023/03/23 08:07:22;;;;;;;11.93;5.45;;;15.10;99.90;;;;;;5087969;28;20394;-69
2023/03/23 08:10:00;;;;;;;9.18;5.75;;;15.10;99.90;;;;;;5099989;28;20089;-68
2023/03/23 08:12:27;;;;;;;7.32;5.05;;;15.10;99.90;;;;;;5071447;28;20116;-67
2023/03/23 08:15:17;;;;;;;9.02;5.50;;;15.00;99.90;;;;;;5067978;28;20494;-67
2023/03/23 08:18:02;;;;;;;7.93;5.72;;;15.10;99.90;;;;;;5064455;28;20040;-68
2023/03/23 08:20:32;;;;;;;10.25;5.30;;;14.90;99.90;;;;;;5092574;28;20100;-68
2023/03/23 08:23:21;;;;;;;11.73;5.85;;;14.70;99.90;;;;;;5064184;28;20510;-68
2023/03/23 08:26:07;;;;;;;8.68;5.45;;;14.70;99.90;;;;;;5076590;28;20036;-68
2023/03/23 08:28:51;;;;;;;7.63;5.13;;;14.70;99.90;;;;;;5092219;28;20387;-68
2023/03/23 08:31:47;;;;;;;9.80;5.35;;;14.60;99.90;;;;;;5042661;28;20056;-67
2023/03/23 08:34:34;;;;;;;16.60;10.63;;;14.50;99.90;;;;;;5043362;28;20045;-67
2023/03/23 08:37:19;;;;;;;8.00;5.93;;;14.60;99.90;;;;;;5055806;28;20047;-68
2023/03/23 08:40:09;;;;;;;14.13;6.15;;;14.60;99.90;;;;;;5034368;28;20041;-67
2023/03/23 08:43:02;;;;;;;8.73;5.95;;;14.50;99.90;;;;;;5000558;28;20075;-67
2023/03/23 08:45:47;;;;;;;11.02;6.00;;;14.60;99.90;;;;;;5035273;28;20523;-68
2023/03/23 08:48:28;;;;;;;;;;;14.50;99.90;;;;;;5037335;28;20103;-68
2023/03/23 08:51:02;;;;;;;11.75;6.30;;;14.60;99.90;;;;;;5069968;28;20000;-68
2023/03/23 08:53:43;;;;;;;10.85;6.45;;;14.70;99.90;;;;;;5036730;28;20127;-68
2023/03/23 08:56:15;;;;;;;;;;;14.80;99.90;;;;;;5047612;28;20406;-68
2023/03/23 08:59:01;;;;;;;8.73;6.50;;;14.90;99.90;;;;;;5034996;28;19922;-68
2023/03/23 09:01:51;;;;;;;9.80;6.47;;;15.00;99.90;;;;;;5001314;28;20046;-68
2023/03/23 09:04:36;;;;;;;12.18;6.50;;;15.10;99.90;;;;;;5015571;28;20532;-68
2023/03/23 09:07:21;;;;;;;7.00;5.38;;;15.20;99.90;;;;;;5002065;28;20132;-68
2023/03/23 09:09:48;;;;;;;9.25;5.75;;;15.30;99.90;;;;;;5012831;28;20488;-67
2023/03/23 09:12:14;;;;;;;9.95;6.20;;;15.20;99.90;;;;;;5007798;28;20072;-67
2023/03/23 09:14:40;;;;;;;9.13;6.07;;;15.30;99.90;;;;;;5030301;28;20104;-67
2023/03/23 09:17:07;;;;;;;11.10;6.35;;;15.40;99.90;;;;;;5030971;28;20045;-67
2023/03/23 09:19:34;;;;;;;15.32;6.00;;;15.40;99.90;;;;;;4997763;28;20116;-66
2023/03/23 09:22:01;;;;;;;7.40;5.50;;;15.40;99.90;;;;;;5032373;28;20090;-68
2023/03/23 09:24:27;;;;;;;7.28;5.50;;;15.50;99.90;;;;;;5015231;28;20037;-67
2023/03/23 09:26:54;;;;;;;11.45;5.72;;;15.70;99.90;;;;;;5032474;28;20037;-67
2023/03/23 09:29:21;;;;;;;9.27;5.60;;;15.80;99.90;;;;;;5015939;28;20029;-66
2023/03/23 09:31:50;;;;;;;9.25;5.70;;;15.90;99.90;;;;;;5032797;28;20045;-66
2023/03/23 09:34:16;;;;;;;11.13;6.07;;;15.90;99.90;;;;;;4999339;28;20040;-67
2023/03/23 09:36:43;;;;;;;9.27;5.60;;;16.00;99.90;;;;;;5016577;28;20041;-66
2023/03/23 09:39:11;;;;;;;8.20;5.80;;;16.10;99.90;;;;;;5050006;28;20075;-67
2023/03/23 09:41:54;;;;;;;7.32;5.10;;;16.00;99.90;;;;;;5091053;28;20033;-66
2023/03/23 09:44:36;;;;;;;6.45;5.20;;;16.00;99.90;;;;;;5046993;28;20438;-66
2023/03/23 09:47:14;;;;;;;11.68;5.38;;;16.00;99.90;;;;;;5080244;28;20028;-66
2023/03/23 09:50:02;;;;;;;8.15;5.93;;;16.30;99.90;;;;;;5076092;28;20443;-66
2023/03/23 09:52:40;;;;;;;6.72;5.43;;;16.50;99.90;;;;;;5072931;28;20032;-66
2023/03/23 09:55:14;;;;;;;8.52;5.32;;;16.60;99.90;;;;;;5057023;28;20036;-66
2023/03/23 09:58:01;;;;;;;9.43;5.45;;;16.60;99.90;;;;;;5039660;28;20141;-67
2023/03/23 10:00:43;;;;;;;7.13;5.55;;;16.50;99.90;;;;;;5053511;28;20047;-67
2023/03/23 10:03:38;;;;;;;;;;;16.60;99.90;;;;;;5093371;28;20051;-67
2023/03/23 10:06:07;;;;;;;7.18;5.80;;;16.60;99.90;;;;;;5088425;28;20298;-67
2023/03/23 10:08:34;;;;;;;6.70;5.72;;;16.40;99.90;;;;;;5075550;28;20066;-66
2023/03/23 10:11:08;;;;;;;11.00;5.65;;;16.40;99.90;;;;;;5057168;28;20356;-67
2023/03/23 10:13:40;;;;;;;8.52;5.38;;;16.30;99.90;;;;;;5079657;28;20110;-66
2023/03/23 10:16:14;;;;;;;8.85;4.85;;;16.50;99.90;;;;;;5067722;28;20098;-68
2023/03/23 10:18:56;;;;;;;7.60;5.18;;;16.40;99.90;;;;;;5055805;28;20147;-67
2023/03/23 10:21:23;;;;;;;7.47;4.65;;;16.00;99.90;;;;;;5073757;28;20063;-66
2023/03/23 10:24:03;;;;;;;5.38;4.05;;;16.00;99.90;;;;;;5082552;28;20040;-67
2023/03/23 10:27:10;;;;;;;6.95;4.65;;;16.00;99.90;;;;;;5039114;28;20036;-67
2023/03/23 10:29:43;;;;;;;5.82;5.03;;;15.90;99.90;;;;;;4998724;28;20069;-66
2023/03/23 10:32:36;;;;;;;6.93;4.50;;;15.60;99.90;;;;;;5006664;28;20046;-68
2023/03/23 10:35:07;;;;;;;5.78;4.75;;;15.50;99.90;;;;;;5009846;28;20124;-68
2023/03/23 10:37:38;;;;;;;6.30;5.00;;;15.60;99.90;;;;;;4992037;28;20570;-68
2023/03/23 10:40:14;;;;;;;7.32;5.35;;;15.50;99.90;;;;;;4975706;28;20319;-68
2023/03/23 10:42:41;;;;;;;7.93;5.28;;;15.50;99.90;;;;;;5025969;28;20042;-66
2023/03/23 10:45:29;;;;;;;7.15;5.05;;;15.50;99.90;;;;;;5008319;28;20093;-67
2023/03/23 10:47:57;;;;;;;8.43;5.07;;;15.60;99.90;;;;;;5026393;28;20151;-67
2023/03/23 10:50:31;;;;;;;8.50;5.18;;;15.60;99.90;;;;;;5026011;28;20512;-65
2023/03/23 10:52:59;;;;;;;5.78;4.40;;;15.50;99.90;;;;;;5005784;28;20446;-66
2023/03/23 10:55:40;;;;;;;6.85;4.32;;;15.50;99.90;;;;;;4986266;28;20495;-66
2023/03/23 10:58:11;;;;;;;4.97;3.75;;;15.30;99.90;;;;;;5003489;28;20496;-66
2023/03/23 11:00:46;;;;;;;12.37;4.33;;;15.30;99.90;;;;;;5006054;28;20063;-66
2023/03/23 11:03:17;;;;;;;5.38;3.92;;;15.30;99.90;;;;;;4991271;28;20048;-65
2023/03/23 11:05:52;;;;;;;4.60;3.90;;;15.20;99.90;;;;;;5041514;28;20068;-67
2023/03/23 11:08:33;;;;;;;7.95;4.13;;;15.20;99.90;;;;;;5069530;28;20365;-66
2023/03/23 11:11:28;;;;;;;4.38;3.65;;;15.10;99.90;;;;;;5083264;28;20549;-66
2023/03/23 11:14:15;;;;;;;6.38;4.25;;;14.90;99.90;;;;;;5073707;28;20508;-67
2023/03/23 11:16:52;;;;;;;7.78;4.50;;;14.90;99.90;;;;;;5091924;28;20047;-67
2023/03/23 11:19:28;;;;;;;7.43;4.30;;;15.00;99.90;;;;;;5056767;28;20402;-66
2023/03/23 11:22:06;;;;;;;6.35;4.57;;;15.00;99.90;;;;;;5056974;28;20032;-68
2023/03/23 11:24:41;;;;;;;7.18;4.57;;;14.90;99.90;;;;;;5055918;28;20044;-67
2023/03/23 11:27:08;;;;;;;4.68;3.80;;;14.90;99.90;;;;;;5052195;28;20040;-66
2023/03/23 11:29:42;;;;;;;6.50;4.28;;;14.90;99.90;;;;;;5069517;28;20086;-67
2023/03/23 11:32:12;;;;;;;5.05;3.88;;;14.90;99.90;;;;;;5081966;28;20125;-67
2023/03/23 11:34:44;;;;;;;6.90;4.25;;;15.00;99.90;;;;;;5068050;28;20028;-68
2023/03/23 11:37:40;;;;;;;4.35;3.58;;;15.00;99.90;;;;;;5067947;28;20039;-66
2023/03/23 11:40:09;;;;;;;4.40;4.00;;;15.00;99.90;;;;;;5058564;28;20027;-66
2023/03/23 11:42:42;;;;;;;5.75;3.80;;;15.00;99.90;;;;;;5073278;28;20044;-67
2023/03/23 11:45:24;;;;;;;6.70;3.85;;;15.00;99.90;;;;;;5065530;28;20125;-67
2023/03/23 11:48:12;;;;;;;8.70;4.40;;;15.10;99.90;;;;;;5077061;28;20028;-67
2023/03/23 11:50:52;;;;;;;6.60;4.38;;;15.30;99.90;;;;;;5079663;28;20057;-66
2023/03/23 11:54:00;;;;;;;5.25;4.00;;;15.20;99.90;;;;;;5078447;28;20054;-66
2023/03/23 11:56:37;;;;;;;6.60;3.65;;;15.20;99.90;;;;;;4992467;28;20046;-69
2023/03/23 11:59:14;;;;;;;7.25;3.72;;;15.20;99.90;;;;;;4978037;28;20148;-67
2023/03/23 12:01:41;;;;;;;7.70;3.72;;;15.20;99.90;;;;;;4993504;28;20497;-73
2023/03/23 12:04:10;;;;;;;4.53;3.55;;;15.00;99.90;;;;;;4995370;28;20096;-73
2023/03/23 12:06:51;;;;;;;6.47;3.80;;;15.20;99.90;;;;;;4992912;28;20050;-72
2023/03/23 12:09:39;;;;;;;4.90;3.80;;;15.30;99.90;;;;;;4993739;28;20658;-72
2023/03/23 12:12:30;;;;;;;7.03;3.67;;;15.40;99.90;;;;;;4977118;28;20232;-71
2023/03/23 12:15:04;;;;;;;5.93;3.70;;;15.40;99.90;;;;;;4961729;28;20407;-72
2023/03/23 12:17:39;;;;;;;6.10;3.58;;;15.70;99.90;;;;;;4994531;28;20061;-72
2023/03/23 12:20:27;;;;;;;4.97;3.83;;;16.00;99.90;;;;;;4976782;28;20111;-73
2023/03/23 12:23:22;;;;;;;4.93;3.95;;;16.20;99.90;;;;;;5024336;28;20143;-73
2023/03/23 12:25:52;;;;;;;4.80;3.63;;;16.30;99.90;;;;;;4976843;28;20038;-72
2023/03/23 12:28:48;;;;;;;4.00;3.50;;;16.10;99.90;;;;;;4993067;28;20217;-72
2023/03/23 12:31:43;;;;;;;7.15;3.75;;;16.00;99.90;;;;;;4991837;28;20050;-72
2023/03/23 12:34:30;;;;;;;6.57;3.53;;;16.30;99.90;;;;;;5068468;28;20059;-72
2023/03/23 12:37:25;;;;;;;4.97;3.50;;;16.30;99.90;;;;;;5060663;28;20040;-74
2023/03/23 12:40:23;;;;;;;6.28;3.35;;;16.40;99.90;;;;;;5056093;28;20146;-71
2023/03/23 12:43:33;;;;;;;4.18;3.22;;;16.40;99.90;;;;;;5084287;28;20493;-73
2023/03/23 12:46:17;;;;;;;6.35;3.15;;;16.40;99.90;;;;;;5049094;28;20049;-72
2023/03/23 12:48:50;;;;;;;5.45;3.38;;;16.30;99.90;;;;;;5029359;28;20491;-74
2023/03/23 12:51:22;;;;;;;4.32;3.03;;;16.30;99.90;;;;;;4982846;28;20041;-68
2023/03/23 12:53:48;;;;;;;4.45;2.90;;;16.10;99.90;;;;;;5031684;28;20062;-72
2023/03/23 12:56:28;;;;;;;3.88;3.20;;;16.10;99.90;;;;;;5032214;28;20710;-73
2023/03/23 12:59:06;;;;;;;4.13;3.38;;;16.00;99.90;;;;;;5013983;28;20048;-72
2023/03/23 13:01:38;;;;;;;5.15;3.00;;;16.00;99.90;;;;;;5030560;28;20064;-73
2023/03/23 13:04:21;;;;;;;;;;;16.10;99.90;;;;;;5049446;28;20057;-73
2023/03/23 13:06:48;;;;;;;4.93;2.78;;;16.00;99.90;;;;;;5012543;28;19979;-69
2023/03/23 13:09:30;;;;;;;5.47;3.30;;;16.10;99.90;;;;;;4995893;28;20064;-70
2023/03/23 13:11:59;;;;;;;3.67;2.80;;;16.20;99.90;;;;;;5017740;28;20547;-69
2023/03/23 13:14:37;;;;;;;4.03;2.70;;;16.20;99.90;;;;;;5049694;28;20041;-72
2023/03/23 13:17:27;;;;;;;4.10;3.00;;;16.20;99.90;;;;;;5015562;28;20053;-71
2023/03/23 13:20:19;;;;;;;4.68;2.97;;;16.10;99.90;;;;;;5027725;28;20129;-73
2023/03/23 13:22:48;;;;;;;;;;;16.30;99.90;;;;;;5031682;28;20048;-72
2023/03/23 13:25:43;;;;;;;3.95;3.28;;;16.50;99.90;;;;;;5061439;28;20281;-72
2023/03/23 13:28:22;;;;;;;4.03;3.63;;;16.40;99.90;;;;;;5093373;28;20311;-73
2023/03/23 13:31:00;;;;;;;4.30;3.58;;;16.70;99.90;;;;;;5060840;28;20492;-68
2023/03/23 13:33:36;;;;;;;4.40;3.70;;;16.90;99.90;;;;;;5076092;28;20047;-71